Time;durP1;ratioP1;P1;durP2;ratioP2;P2;SDS_P1;SDS_P2;PMS_P1;PMS_P2;Temp;Humidity;BMP_temperature;BMP_pressure;BME280_temperature;BME280_humidity;BME280_pressure;Samples;Min_cycle;Max_cycle;Signal;HPM_P1;HPM_P2
2022/10/28 00:00:55;;;;;;;0.00;0.00;;;;;;;;;;5004834;28;20060;-89
2022/10/28 00:03:22;;;;;;;0.00;0.00;;;16.00;99.90;;;;;;5001510;28;20388;-87
2022/10/28 00:05:49;;;;;;;0.00;0.00;;;16.00;99.90;;;;;;5006735;28;20485;-89
2022/10/28 00:08:16;;;;;;;0.00;0.00;;;16.00;99.90;;;;;;4990700;28;20137;-88
2022/10/28 00:10:44;;;;;;;0.00;0.00;;;16.00;99.90;;;;;;5005015;28;20060;-88
2022/10/28 00:13:11;;;;;;;0.00;0.00;;;16.00;99.90;;;;;;5007961;28;20040;-88
2022/10/28 00:15:38;;;;;;;0.00;0.00;;;16.00;99.90;;;;;;4988935;28;20046;-88
2022/10/28 00:18:05;;;;;;;0.00;0.00;;;16.00;99.90;;;;;;5006559;28;20056;-87
2022/10/28 00:20:31;;;;;;;0.00;0.00;;;16.00;99.90;;;;;;4985129;28;20034;-88
2022/10/28 00:22:58;;;;;;;0.00;0.00;;;16.70;99.90;;;;;;5005878;28;20441;-87
2022/10/28 00:25:25;;;;;;;0.00;0.00;;;16.10;99.90;;;;;;4991213;28;20137;-87
2022/10/28 00:27:53;;;;;;;0.00;0.00;;;16.10;99.90;;;;;;5007667;28;20124;-87
2022/10/28 00:30:21;;;;;;;0.00;0.00;;;16.10;99.90;;;;;;4981909;28;20222;-87
2022/10/28 00:32:48;;;;;;;0.00;0.00;;;16.10;99.90;;;;;;5006728;28;20069;-88
2022/10/28 00:35:15;;;;;;;0.00;0.00;;;;;;;;;;4997605;28;20139;-88
2022/10/28 00:37:42;;;;;;;0.00;0.00;;;16.10;99.90;;;;;;5006296;28;20049;-87
2022/10/28 00:40:10;;;;;;;0.00;0.00;;;16.30;99.90;;;;;;5004570;28;20073;-88
2022/10/28 00:42:37;;;;;;;0.00;0.00;;;16.10;99.90;;;;;;5005232;28;20042;-89
2022/10/28 00:45:08;;;;;;;0.00;0.00;;;16.20;99.90;;;;;;5011106;28;20049;-87
2022/10/28 00:47:42;;;;;;;0.00;0.00;;;16.20;99.90;;;;;;5000119;28;20541;-88
2022/10/28 00:50:26;;;;;;;0.00;0.00;;;16.20;99.90;;;;;;5005262;28;20517;-89
2022/10/28 00:52:59;;;;;;;0.00;0.00;;;16.10;99.90;;;;;;5010352;28;20299;-88
2022/10/28 00:55:27;;;;;;;0.00;0.00;;;16.20;99.90;;;;;;4982711;28;20054;-89
2022/10/28 00:57:56;;;;;;;0.00;0.00;;;16.10;99.90;;;;;;5008552;28;20064;-88
2022/10/28 01:00:25;;;;;;;0.00;0.00;;;16.10;99.90;;;;;;5013183;28;20221;-88
2022/10/28 01:02:52;;;;;;;0.00;0.00;;;16.10;99.90;;;;;;5009326;28;20074;-88
2022/10/28 01:05:22;;;;;;;0.00;0.00;;;16.10;99.90;;;;;;5006863;28;20129;-87
2022/10/28 01:07:50;;;;;;;0.00;0.00;;;17.40;99.90;;;;;;4995912;28;20050;-88
2022/10/28 01:10:20;;;;;;;0.00;0.00;;;16.10;99.90;;;;;;5014071;28;20041;-87
2022/10/28 01:12:58;;;;;;;0.00;0.00;;;16.10;99.90;;;;;;5011068;28;20485;-88
2022/10/28 01:15:36;;;;;;;0.00;0.00;;;16.00;99.90;;;;;;5008809;28;20054;-88
2022/10/28 01:18:22;;;;;;;0.00;0.00;;;16.00;99.90;;;;;;5008630;28;20088;-87
2022/10/28 01:21:20;;;;;;;0.00;0.00;;;16.00;99.90;;;;;;4993326;28;20494;-88
2022/10/28 01:24:02;;;;;;;0.00;0.00;;;15.90;99.90;;;;;;4976355;28;20057;-88
2022/10/28 01:26:55;;;;;;;0.00;0.00;;;15.90;99.90;;;;;;4990296;28;20410;-87
2022/10/28 01:29:58;;;;;;;0.00;0.00;;;15.90;99.90;;;;;;4988676;28;20056;-89
2022/10/28 01:32:32;;;;;;;0.00;0.00;;;15.90;99.90;;;;;;5006262;28;20520;-88
2022/10/28 01:35:10;;;;;;;0.00;0.00;;;15.80;99.90;;;;;;5003911;28;20131;-88
2022/10/28 01:37:45;;;;;;;0.00;0.00;;;15.80;99.90;;;;;;4984765;28;21807;-88
2022/10/28 01:40:20;;;;;;;0.00;0.00;;;15.80;99.90;;;;;;4993605;28;20060;-88
2022/10/28 01:42:53;;;;;;;0.05;0.05;;;15.70;99.90;;;;;;5004945;28;20085;-86
2022/10/28 01:45:24;;;;;;;0.00;0.00;;;15.70;99.90;;;;;;5007303;28;20115;-87
2022/10/28 01:47:58;;;;;;;0.00;0.00;;;15.70;99.90;;;;;;4990735;28;20417;-89
2022/10/28 01:50:29;;;;;;;0.00;0.00;;;15.70;99.90;;;;;;5005338;28;20062;-89
2022/10/28 01:52:59;;;;;;;0.00;0.00;;;15.70;99.90;;;;;;5009745;28;20053;-88
2022/10/28 01:55:32;;;;;;;0.10;0.10;;;15.70;99.90;;;;;;5010745;28;20038;-89
2022/10/28 01:58:01;;;;;;;0.00;0.00;;;15.70;99.90;;;;;;4990799;28;20436;-89
2022/10/28 02:00:29;;;;;;;0.00;0.00;;;15.80;99.90;;;;;;4988753;28;20061;-86
2022/10/28 02:02:57;;;;;;;0.00;0.00;;;16.20;99.90;;;;;;5008566;28;20053;-87
2022/10/28 02:05:45;;;;;;;0.00;0.00;;;15.80;99.90;;;;;;4989638;28;20486;-87
2022/10/28 02:08:43;;;;;;;0.00;0.00;;;15.80;99.90;;;;;;4987018;28;20498;-87
2022/10/28 02:11:32;;;;;;;0.00;0.00;;;15.70;99.90;;;;;;4986786;28;20050;-87
2022/10/28 02:14:14;;;;;;;0.00;0.00;;;15.70;99.90;;;;;;5001913;28;20060;-88
2022/10/28 02:16:47;;;;;;;0.00;0.00;;;15.70;99.90;;;;;;5006643;28;20046;-87
2022/10/28 02:19:25;;;;;;;0.10;0.10;;;17.00;99.90;;;;;;5002305;28;20049;-87
2022/10/28 02:22:04;;;;;;;0.13;0.10;;;15.70;99.90;;;;;;5011319;28;20046;-88
2022/10/28 02:24:37;;;;;;;0.00;0.00;;;15.70;99.90;;;;;;5008894;28;20064;-87
2022/10/28 02:27:10;;;;;;;0.00;0.00;;;15.70;99.90;;;;;;5008617;28;20398;-86
2022/10/28 02:29:44;;;;;;;0.00;0.00;;;15.70;99.90;;;;;;5002917;28;20475;-87
2022/10/28 02:32:15;;;;;;;0.00;0.00;;;15.70;99.90;;;;;;5003866;28;20494;-87
2022/10/28 02:34:46;;;;;;;0.00;0.00;;;15.70;99.90;;;;;;4993100;28;20053;-87
2022/10/28 02:37:17;;;;;;;0.00;0.00;;;15.70;99.90;;;;;;5003171;28;20056;-88
2022/10/28 02:39:51;;;;;;;0.00;0.00;;;15.80;99.90;;;;;;4991559;28;20395;-86
2022/10/28 02:42:23;;;;;;;0.00;0.00;;;15.80;99.90;;;;;;5005003;28;20085;-86
2022/10/28 02:44:55;;;;;;;0.00;0.00;;;15.70;99.90;;;;;;5004384;28;20041;-87
2022/10/28 02:47:27;;;;;;;0.00;0.00;;;15.70;99.90;;;;;;5005396;28;20042;-86
2022/10/28 02:49:59;;;;;;;0.00;0.00;;;15.80;99.90;;;;;;4988731;28;20407;-86
2022/10/28 02:52:30;;;;;;;0.10;0.10;;;15.70;99.90;;;;;;4993443;28;20048;-87
2022/10/28 02:54:58;;;;;;;0.00;0.00;;;15.70;99.90;;;;;;4993516;28;20427;-87
2022/10/28 02:57:29;;;;;;;0.00;0.00;;;15.70;99.90;;;;;;5005834;28;20053;-86
2022/10/28 02:59:57;;;;;;;0.00;0.00;;;15.70;99.90;;;;;;5005517;28;20048;-87
2022/10/28 03:02:24;;;;;;;0.00;0.00;;;15.70;99.90;;;;;;4999175;28;20046;-87
2022/10/28 03:04:51;;;;;;;0.00;0.00;;;15.70;99.90;;;;;;5000290;28;20057;-87
2022/10/28 03:07:20;;;;;;;0.00;0.00;;;15.70;99.90;;;;;;4983886;28;20048;-86
2022/10/28 03:09:47;;;;;;;0.00;0.00;;;15.70;99.90;;;;;;5007981;28;20053;-86
2022/10/28 03:12:14;;;;;;;0.00;0.00;;;15.70;99.90;;;;;;5002782;28;20053;-86
2022/10/28 03:14:41;;;;;;;0.00;0.00;;;;;;;;;;4987738;28;20050;-86
2022/10/28 03:17:08;;;;;;;0.00;0.00;;;15.60;99.90;;;;;;5005825;28;20414;-87
2022/10/28 03:19:35;;;;;;;0.00;0.00;;;15.50;99.90;;;;;;5005050;28;20564;-87
2022/10/28 03:22:01;;;;;;;0.00;0.00;;;15.50;99.90;;;;;;5000264;28;20088;-86
2022/10/28 03:24:30;;;;;;;0.00;0.00;;;15.50;99.90;;;;;;5007475;28;20397;-86
2022/10/28 03:26:56;;;;;;;0.00;0.00;;;15.50;99.90;;;;;;5011860;28;20173;-87
2022/10/28 03:29:23;;;;;;;0.00;0.00;;;15.50;99.90;;;;;;5009397;28;20166;-86
2022/10/28 03:31:50;;;;;;;0.00;0.00;;;;;;;;;;4990786;28;20129;-86
2022/10/28 03:34:17;;;;;;;0.00;0.00;;;15.50;99.90;;;;;;5007631;28;20042;-86
2022/10/28 03:36:44;;;;;;;0.00;0.00;;;15.50;99.90;;;;;;5005717;28;20514;-87
2022/10/28 03:39:11;;;;;;;0.00;0.00;;;;;;;;;;4991867;28;20053;-87
2022/10/28 03:41:39;;;;;;;0.00;0.00;;;15.50;99.90;;;;;;5006407;28;20058;-86
2022/10/28 03:44:06;;;;;;;0.00;0.00;;;17.10;99.90;;;;;;4988787;28;20413;-86
2022/10/28 03:46:33;;;;;;;0.00;0.00;;;15.50;99.90;;;;;;5002800;28;20494;-84
2022/10/28 03:49:02;;;;;;;0.00;0.00;;;15.40;99.90;;;;;;5003404;28;20049;-87
2022/10/28 03:51:29;;;;;;;0.00;0.00;;;15.50;99.90;;;;;;4987349;28;20524;-86
2022/10/28 03:53:55;;;;;;;0.00;0.00;;;15.40;99.90;;;;;;5000286;28;20054;-87
2022/10/28 03:56:23;;;;;;;0.00;0.00;;;;;;;;;;5006119;28;20417;-86
2022/10/28 03:58:51;;;;;;;0.00;0.00;;;15.40;99.90;;;;;;4997939;28;20054;-86
2022/10/28 04:01:17;;;;;;;0.00;0.00;;;15.40;99.90;;;;;;4988770;28;20050;-86
2022/10/28 04:03:44;;;;;;;0.00;0.00;;;15.40;99.90;;;;;;5006331;28;20046;-86
2022/10/28 04:06:11;;;;;;;0.00;0.00;;;15.50;99.90;;;;;;5003006;28;20046;-86
2022/10/28 04:08:38;;;;;;;0.00;0.00;;;15.40;99.90;;;;;;5004696;28;20136;-85
2022/10/28 04:11:05;;;;;;;0.00;0.00;;;15.40;99.90;;;;;;4987605;28;20042;-87
2022/10/28 04:13:32;;;;;;;0.00;0.00;;;15.40;99.90;;;;;;5005235;28;20383;-86
2022/10/28 04:16:00;;;;;;;0.00;0.00;;;15.40;99.90;;;;;;4991515;28;20044;-87
2022/10/28 04:18:27;;;;;;;0.03;0.03;;;15.50;99.90;;;;;;5009918;28;20528;-86
2022/10/28 04:20:54;;;;;;;0.00;0.00;;;15.50;99.90;;;;;;4993046;28;20529;-87
2022/10/28 04:23:21;;;;;;;0.00;0.00;;;15.50;99.90;;;;;;5006105;28;20046;-86
2022/10/28 04:25:50;;;;;;;0.00;0.00;;;15.50;99.90;;;;;;5002124;28;20137;-87
2022/10/28 04:28:17;;;;;;;0.00;0.00;;;15.50;99.90;;;;;;4988827;28;20129;-87
2022/10/28 04:30:46;;;;;;;0.00;0.00;;;15.50;99.90;;;;;;5005410;28;20108;-88
2022/10/28 04:33:14;;;;;;;0.00;0.00;;;15.50;99.90;;;;;;5009260;28;20084;-86
2022/10/28 04:35:42;;;;;;;0.00;0.00;;;;;;;;;;5008933;28;20498;-86
2022/10/28 04:38:09;;;;;;;0.00;0.00;;;15.40;99.90;;;;;;5004030;28;20049;-86
2022/10/28 04:40:36;;;;;;;0.00;0.00;;;15.40;99.90;;;;;;5006942;28;20913;-85
2022/10/28 04:43:03;;;;;;;0.15;0.03;;;15.40;99.90;;;;;;5008848;28;20078;-86
2022/10/28 04:45:36;;;;;;;0.00;0.00;;;15.30;99.90;;;;;;4995962;28;20042;-85
2022/10/28 04:48:04;;;;;;;0.00;0.00;;;15.40;99.90;;;;;;4985934;28;20069;-86
2022/10/28 04:50:32;;;;;;;0.00;0.00;;;15.20;99.90;;;;;;4993056;28;20056;-86
2022/10/28 04:52:59;;;;;;;0.00;0.00;;;;;;;;;;5012928;28;20050;-87
2022/10/28 04:55:26;;;;;;;0.00;0.00;;;15.20;99.90;;;;;;5013266;28;20038;-86
2022/10/28 04:57:54;;;;;;;0.00;0.00;;;15.20;99.90;;;;;;5011457;28;20042;-86
2022/10/28 05:00:21;;;;;;;0.00;0.00;;;15.20;99.90;;;;;;5011027;28;20384;-86
2022/10/28 05:02:48;;;;;;;0.00;0.00;;;15.10;99.90;;;;;;4994632;28;20056;-86
2022/10/28 05:05:15;;;;;;;0.00;0.00;;;15.90;99.90;;;;;;5006720;28;20042;-86
2022/10/28 05:07:44;;;;;;;0.00;0.00;;;15.00;99.90;;;;;;4996229;28;20053;-87
2022/10/28 05:10:14;;;;;;;0.00;0.00;;;15.00;99.90;;;;;;4995833;28;20049;-86
2022/10/28 05:12:41;;;;;;;0.00;0.00;;;15.00;99.90;;;;;;4993705;28;20643;-87
2022/10/28 05:15:10;;;;;;;0.00;0.00;;;15.00;99.90;;;;;;4993461;28;20125;-86
2022/10/28 05:17:38;;;;;;;0.00;0.00;;;15.00;99.90;;;;;;4995080;28;20076;-86
2022/10/28 05:20:07;;;;;;;0.00;0.00;;;14.90;99.90;;;;;;5008477;28;20046;-86
2022/10/28 05:22:34;;;;;;;0.00;0.00;;;;;;;;;;5007688;28;20533;-86
2022/10/28 05:25:02;;;;;;;0.00;0.00;;;14.90;99.90;;;;;;4994040;28;20035;-87
2022/10/28 05:27:30;;;;;;;0.00;0.00;;;;;;;;;;5017943;28;20048;-85
2022/10/28 05:29:57;;;;;;;0.00;0.00;;;14.90;99.90;;;;;;5011398;28;20050;-86
2022/10/28 05:32:23;;;;;;;0.00;0.00;;;15.10;99.90;;;;;;5011061;28;20050;-86
2022/10/28 05:34:50;;;;;;;0.00;0.00;;;14.90;99.90;;;;;;5010359;28;20138;-87
2022/10/28 05:37:17;;;;;;;0.00;0.00;;;;;;;;;;5007323;28;20046;-85
2022/10/28 05:39:44;;;;;;;0.00;0.00;;;14.90;99.90;;;;;;4996650;28;20046;-86
2022/10/28 05:42:12;;;;;;;0.00;0.00;;;14.90;99.90;;;;;;4993431;28;20049;-87
2022/10/28 05:44:39;;;;;;;0.00;0.00;;;16.90;99.90;;;;;;4993945;28;20034;-87
2022/10/28 05:47:06;;;;;;;0.00;0.00;;;14.90;99.90;;;;;;5010160;28;20057;-86
2022/10/28 05:49:34;;;;;;;0.00;0.00;;;14.90;99.90;;;;;;4990140;28;20064;-87
2022/10/28 05:52:00;;;;;;;0.00;0.00;;;14.90;99.90;;;;;;5008954;28;20052;-87
2022/10/28 05:54:27;;;;;;;0.00;0.00;;;14.90;99.90;;;;;;5008651;28;20387;-86
2022/10/28 05:56:54;;;;;;;0.00;0.00;;;14.90;99.90;;;;;;5006947;28;20096;-87
2022/10/28 05:59:22;;;;;;;0.00;0.00;;;14.90;99.90;;;;;;4993857;28;20034;-86
2022/10/28 06:01:49;;;;;;;0.00;0.00;;;;;;;;;;5007590;28;20054;-86
2022/10/28 06:04:16;;;;;;;0.10;0.10;;;14.90;99.90;;;;;;5008033;28;20395;-85
2022/10/28 06:06:43;;;;;;;0.00;0.00;;;14.90;99.90;;;;;;5004208;28;20045;-87
2022/10/28 06:09:10;;;;;;;0.10;0.10;;;14.90;99.90;;;;;;5011866;28;20076;-87
2022/10/28 06:11:37;;;;;;;0.00;0.00;;;16.00;99.90;;;;;;4991707;28;20103;-87
2022/10/28 06:14:04;;;;;;;0.00;0.00;;;;;;;;;;5004203;28;20782;-86
2022/10/28 06:16:32;;;;;;;0.00;0.00;;;14.90;99.90;;;;;;5011473;28;20046;-87
2022/10/28 06:18:59;;;;;;;0.00;0.00;;;15.00;99.90;;;;;;4989503;28;20042;-87
2022/10/28 06:21:26;;;;;;;0.00;0.00;;;15.40;99.90;;;;;;5004375;28;20048;-87
2022/10/28 06:23:53;;;;;;;0.00;0.00;;;14.90;99.90;;;;;;5010679;28;20049;-87
2022/10/28 06:26:20;;;;;;;0.00;0.00;;;14.90;99.90;;;;;;5007517;28;20046;-87
2022/10/28 06:28:47;;;;;;;0.00;0.00;;;16.90;99.90;;;;;;5004917;28;20160;-86
2022/10/28 06:31:14;;;;;;;0.00;0.00;;;15.00;99.90;;;;;;4988433;28;20054;-86
2022/10/28 06:33:42;;;;;;;0.00;0.00;;;15.00;99.90;;;;;;4992404;28;20038;-87
2022/10/28 06:36:09;;;;;;;0.00;0.00;;;15.10;99.90;;;;;;5004809;28;20041;-87
2022/10/28 06:38:36;;;;;;;0.00;0.00;;;15.30;99.90;;;;;;4994647;28;20053;-86
2022/10/28 06:41:03;;;;;;;0.00;0.00;;;15.20;99.90;;;;;;5008949;28;20044;-86
2022/10/28 06:43:30;;;;;;;0.00;0.00;;;15.20;99.90;;;;;;4987180;28;20565;-86
2022/10/28 06:46:00;;;;;;;0.00;0.00;;;15.10;99.90;;;;;;5008452;28;20048;-87
2022/10/28 06:48:27;;;;;;;0.00;0.00;;;;;;;;;;5004334;28;20042;-86
2022/10/28 06:50:56;;;;;;;0.00;0.00;;;15.10;99.90;;;;;;5005178;28;20054;-87
2022/10/28 06:53:24;;;;;;;0.00;0.00;;;15.20;99.90;;;;;;5006393;28;20117;-87
2022/10/28 06:55:54;;;;;;;0.00;0.00;;;15.20;99.90;;;;;;4989076;28;20053;-87
2022/10/28 06:58:21;;;;;;;0.00;0.00;;;17.00;99.90;;;;;;5009735;28;20049;-85
2022/10/28 07:00:48;;;;;;;0.00;0.00;;;15.30;99.90;;;;;;5008044;28;20046;-87
2022/10/28 07:03:15;;;;;;;0.00;0.00;;;15.30;99.90;;;;;;4993549;28;20586;-87
2022/10/28 07:05:43;;;;;;;0.00;0.00;;;15.30;99.90;;;;;;4994804;28;20482;-86
2022/10/28 07:08:11;;;;;;;0.00;0.00;;;15.40;99.90;;;;;;5007676;28;20551;-86
2022/10/28 07:10:38;;;;;;;0.00;0.00;;;;;;;;;;4994777;28;20045;-86
2022/10/28 07:13:06;;;;;;;0.00;0.00;;;;;;;;;;5007975;28;20128;-87
2022/10/28 07:15:33;;;;;;;0.00;0.00;;;;;;;;;;4994782;28;20074;-87
2022/10/28 07:18:01;;;;;;;0.00;0.00;;;15.50;99.90;;;;;;5001607;28;20057;-87
2022/10/28 07:20:30;;;;;;;0.00;0.00;;;15.50;99.90;;;;;;4991187;28;20058;-86
2022/10/28 07:22:58;;;;;;;0.00;0.00;;;15.60;99.90;;;;;;5009645;28;20034;-86
2022/10/28 07:25:27;;;;;;;0.00;0.00;;;16.30;99.90;;;;;;4995228;28;20398;-86
2022/10/28 07:27:55;;;;;;;0.00;0.00;;;15.70;99.90;;;;;;5011799;28;20080;-86
2022/10/28 07:30:23;;;;;;;0.00;0.00;;;17.10;99.90;;;;;;5012066;28;20498;-87
2022/10/28 07:32:50;;;;;;;0.00;0.00;;;15.80;99.90;;;;;;4994522;28;20058;-87
2022/10/28 07:35:17;;;;;;;0.00;0.00;;;15.80;99.90;;;;;;4991135;28;20518;-87
2022/10/28 07:37:44;;;;;;;0.00;0.00;;;15.80;99.90;;;;;;4985650;28;20052;-87
2022/10/28 07:40:11;;;;;;;0.00;0.00;;;15.80;99.90;;;;;;4991013;28;20045;-87
2022/10/28 07:42:39;;;;;;;0.00;0.00;;;15.90;99.90;;;;;;4992438;28;20052;-86
2022/10/28 07:45:07;;;;;;;0.00;0.00;;;16.00;99.90;;;;;;5010158;28;20045;-87
2022/10/28 07:47:34;;;;;;;0.00;0.00;;;15.90;99.90;;;;;;5009937;28;20129;-86
2022/10/28 07:50:01;;;;;;;0.00;0.00;;;16.00;99.90;;;;;;5011774;28;20053;-87
2022/10/28 07:52:27;;;;;;;0.00;0.00;;;16.00;99.90;;;;;;5008702;28;20042;-87
2022/10/28 07:54:54;;;;;;;0.00;0.00;;;16.00;99.90;;;;;;4994430;28;20042;-87
2022/10/28 07:57:21;;;;;;;0.00;0.00;;;16.10;99.90;;;;;;5013235;28;20076;-88
2022/10/28 07:59:49;;;;;;;0.00;0.00;;;16.10;99.90;;;;;;5010917;28;20101;-86
2022/10/28 08:04:46;;;;;;;0.00;0.00;;;16.20;99.90;;;;;;4982490;22;20147;-86
2022/10/28 08:07:32;;;;;;;0.00;0.00;;;16.30;99.90;;;;;;4954915;28;20047;-88
2022/10/28 08:11:06;;;;;;;0.00;0.00;;;16.30;99.90;;;;;;4880151;28;20053;-85
2022/10/28 08:13:38;;;;;;;0.00;0.00;;;16.40;99.90;;;;;;4898085;28;20064;-88
2022/10/28 08:16:07;;;;;;;0.00;0.00;;;16.40;99.90;;;;;;4893460;28;20084;-84
2022/10/28 08:18:33;;;;;;;0.00;0.00;;;16.50;99.90;;;;;;4890698;28;20080;-83
2022/10/28 08:21:02;;;;;;;0.00;0.00;;;16.50;99.90;;;;;;4891332;28;20082;-83
2022/10/28 08:23:32;;;;;;;0.00;0.00;;;16.50;99.90;;;;;;4875450;29;20059;-82
2022/10/28 08:25:58;;;;;;;0.00;0.00;;;16.60;99.90;;;;;;4878757;28;20045;-83
2022/10/28 08:28:26;;;;;;;0.00;0.00;;;16.80;99.90;;;;;;4871030;28;20128;-81
2022/10/28 08:31:00;;;;;;;0.00;0.00;;;16.70;99.90;;;;;;4873553;28;20037;-79
2022/10/28 08:33:49;;;;;;;;;;;;;;;;;;;;;
2022/10/28 08:36:30;;;;;;;0.00;0.00;;;16.90;99.90;;;;;;4884038;28;20096;-82
2022/10/28 08:39:23;;;;;;;0.00;0.00;;;17.10;99.90;;;;;;4888560;28;20076;-89
2022/10/28 08:42:03;;;;;;;0.00;0.00;;;17.00;99.90;;;;;;4871315;28;20057;-83
2022/10/28 08:44:42;;;;;;;0.00;0.00;;;17.20;99.90;;;;;;4883249;28;20061;-82
2022/10/28 08:47:20;;;;;;;0.00;0.00;;;17.00;99.90;;;;;;4909120;28;20082;-83
2022/10/28 08:49:51;;;;;;;0.00;0.00;;;17.10;99.90;;;;;;4946958;28;20052;-83
2022/10/28 08:52:25;;;;;;;0.00;0.00;;;17.20;99.90;;;;;;4948295;28;20055;-86
2022/10/28 08:54:56;;;;;;;0.00;0.00;;;17.30;99.90;;;;;;4944465;28;20079;-88
2022/10/28 08:57:32;;;;;;;0.00;0.00;;;17.30;99.90;;;;;;4970256;28;20071;-85
2022/10/28 08:59:59;;;;;;;0.00;0.00;;;17.40;99.90;;;;;;4939676;28;20083;-86
2022/10/28 09:02:31;;;;;;;0.00;0.00;;;17.50;99.90;;;;;;4955587;28;20055;-80
2022/10/28 09:05:04;;;;;;;0.00;0.00;;;17.60;99.90;;;;;;4949284;28;20094;-88
2022/10/28 09:07:34;;;;;;;0.00;0.00;;;17.60;99.90;;;;;;4935021;28;20083;-87
2022/10/28 09:10:03;;;;;;;;;;;18.30;99.90;;;;;;4938984;28;20047;-90
2022/10/28 09:12:43;;;;;;;0.00;0.00;;;18.00;99.90;;;;;;4949699;28;19923;-83
2022/10/28 09:15:25;;;;;;;0.00;0.00;;;17.80;99.90;;;;;;4933562;28;20047;-87
2022/10/28 09:17:55;;;;;;;0.00;0.00;;;17.90;99.90;;;;;;4957615;28;20075;-87
2022/10/28 09:20:35;;;;;;;0.00;0.00;;;18.00;99.90;;;;;;4941990;28;20048;-86
2022/10/28 09:23:09;;;;;;;0.00;0.00;;;18.40;99.90;;;;;;4955714;28;20055;-86
2022/10/28 09:25:47;;;;;;;0.00;0.00;;;18.10;99.90;;;;;;4941058;28;20074;-84
2022/10/28 09:28:25;;;;;;;0.00;0.00;;;18.30;99.90;;;;;;4950683;28;20044;-87
2022/10/28 09:31:18;;;;;;;0.08;0.00;;;18.30;99.90;;;;;;4953228;28;20071;-89
2022/10/28 09:34:02;;;;;;;0.00;0.00;;;18.40;99.90;;;;;;4954210;28;20051;-84
2022/10/28 09:36:33;;;;;;;0.00;0.00;;;18.50;99.90;;;;;;4947188;28;20052;-83
2022/10/28 09:39:02;;;;;;;0.00;0.00;;;18.60;99.90;;;;;;4958898;28;20086;-84
2022/10/28 09:41:48;;;;;;;0.00;0.00;;;19.20;99.90;;;;;;4947979;28;20044;-83
2022/10/28 09:44:21;;;;;;;0.08;0.08;;;18.70;99.90;;;;;;4949752;28;20044;-85
2022/10/28 09:46:55;;;;;;;0.00;0.00;;;18.80;99.90;;;;;;4955758;28;20194;-84
2022/10/28 09:49:26;;;;;;;0.00;0.00;;;20.40;99.90;;;;;;4951521;28;20047;-87
2022/10/28 09:52:00;;;;;;;0.00;0.00;;;18.80;99.90;;;;;;4950818;28;20043;-84
2022/10/28 09:54:33;;;;;;;0.00;0.00;;;19.00;99.90;;;;;;4944114;28;20089;-86
2022/10/28 09:57:01;;;;;;;0.00;0.00;;;19.00;99.90;;;;;;4946988;28;20051;-86
2022/10/28 09:59:54;;;;;;;0.00;0.00;;;19.10;99.90;;;;;;4957418;28;20044;-85
2022/10/28 10:02:39;;;;;;;0.00;0.00;;;21.20;99.90;;;;;;4961929;28;20055;-82
2022/10/28 10:05:13;;;;;;;0.00;0.00;;;19.20;99.90;;;;;;4978633;28;20043;-85
2022/10/28 10:07:47;;;;;;;0.00;0.00;;;19.30;99.90;;;;;;4945853;28;20318;-84
2022/10/28 10:10:18;;;;;;;0.00;0.00;;;19.40;99.90;;;;;;4951179;28;20043;-84
2022/10/28 10:12:46;;;;;;;0.00;0.00;;;20.40;99.90;;;;;;4946560;28;20105;-85
2022/10/28 10:15:25;;;;;;;0.00;0.00;;;19.60;99.90;;;;;;4944307;28;20102;-85
2022/10/28 10:17:56;;;;;;;0.00;0.00;;;19.70;99.90;;;;;;4942925;28;20055;-86
2022/10/28 10:20:25;;;;;;;0.00;0.00;;;19.60;99.90;;;;;;4930765;28;20072;-84
2022/10/28 10:22:52;;;;;;;0.00;0.00;;;19.80;99.90;;;;;;4950871;28;20290;-80
2022/10/28 10:25:24;;;;;;;0.00;0.00;;;19.90;99.90;;;;;;4950237;28;20048;-82
2022/10/28 10:27:53;;;;;;;0.00;0.00;;;19.90;99.90;;;;;;4939542;28;20405;-84
2022/10/28 10:30:24;;;;;;;0.00;0.00;;;20.60;99.90;;;;;;4938523;28;20223;-79
2022/10/28 10:32:51;;;;;;;0.00;0.00;;;20.10;99.90;;;;;;4956745;28;20064;-84
2022/10/28 10:35:22;;;;;;;0.00;0.00;;;20.10;99.90;;;;;;4943143;28;20054;-79
2022/10/28 10:37:52;;;;;;;0.00;0.00;;;20.10;99.90;;;;;;4962178;28;20044;-86
2022/10/28 10:40:23;;;;;;;0.00;0.00;;;20.10;99.90;;;;;;4939954;28;20578;-88
2022/10/28 10:42:51;;;;;;;0.00;0.00;;;20.20;99.90;;;;;;4940547;28;20440;-89
2022/10/28 10:45:38;;;;;;;0.00;0.00;;;20.30;99.90;;;;;;4951350;28;20059;-87
2022/10/28 10:48:11;;;;;;;0.00;0.00;;;20.30;99.90;;;;;;4942144;28;20330;-88
2022/10/28 10:50:39;;;;;;;0.00;0.00;;;20.40;99.90;;;;;;4939641;28;20048;-87
2022/10/28 10:53:17;;;;;;;0.00;0.00;;;20.50;99.90;;;;;;4940754;28;20039;-86
2022/10/28 10:55:50;;;;;;;0.00;0.00;;;20.60;99.90;;;;;;4945691;28;20095;-89
2022/10/28 10:58:19;;;;;;;0.00;0.00;;;20.70;99.90;;;;;;4968445;28;20086;-88
2022/10/28 11:00:47;;;;;;;;;;;20.70;99.90;;;;;;4944842;28;20083;-88
2022/10/28 11:03:18;;;;;;;0.00;0.00;;;20.80;99.90;;;;;;4961604;28;19942;-86
2022/10/28 11:05:50;;;;;;;0.00;0.00;;;20.80;99.90;;;;;;4942135;28;20059;-87
2022/10/28 11:08:41;;;;;;;0.00;0.00;;;20.90;99.90;;;;;;4940858;28;20052;-89
2022/10/28 11:11:12;;;;;;;0.00;0.00;;;22.00;99.90;;;;;;4933575;28;20052;-90
2022/10/28 11:13:40;;;;;;;0.00;0.00;;;20.90;99.90;;;;;;4963626;28;20070;-87
2022/10/28 11:16:18;;;;;;;0.00;0.00;;;21.00;99.90;;;;;;4947670;28;20127;-90
2022/10/28 11:18:46;;;;;;;0.00;0.00;;;21.00;99.90;;;;;;4942021;28;20437;-90
2022/10/28 11:21:43;;;;;;;0.00;0.00;;;21.10;99.90;;;;;;4938566;28;20053;-90
2022/10/28 11:24:28;;;;;;;0.00;0.00;;;21.10;99.90;;;;;;4945455;28;20046;-89
2022/10/28 11:27:04;;;;;;;0.00;0.00;;;21.10;99.90;;;;;;4944435;28;20315;-90
2022/10/28 11:29:31;;;;;;;0.00;0.00;;;21.20;99.90;;;;;;4946525;28;20052;-89
2022/10/28 11:32:15;;;;;;;0.00;0.00;;;21.20;99.90;;;;;;4963534;28;20043;-87
2022/10/28 11:35:02;;;;;;;0.00;0.00;;;21.30;99.90;;;;;;4962621;28;20110;-90
2022/10/28 11:37:44;;;;;;;0.00;0.00;;;21.20;99.90;;;;;;4962413;28;20127;-89
2022/10/28 11:40:26;;;;;;;0.00;0.00;;;21.30;99.90;;;;;;4952917;28;20060;-89
2022/10/28 11:43:04;;;;;;;0.00;0.00;;;21.30;99.90;;;;;;4964303;28;20091;-89
2022/10/28 11:45:37;;;;;;;0.00;0.00;;;21.30;99.90;;;;;;4945391;28;20461;-84
2022/10/28 11:48:18;;;;;;;0.00;0.00;;;21.30;99.90;;;;;;4932430;28;20043;-87
2022/10/28 11:50:57;;;;;;;0.00;0.00;;;21.40;99.90;;;;;;4956072;28;20047;-85
2022/10/28 11:53:39;;;;;;;0.00;0.00;;;22.30;99.90;;;;;;4941648;28;20517;-87
2022/10/28 11:56:18;;;;;;;0.00;0.00;;;21.40;99.90;;;;;;4957270;28;20299;-87
2022/10/28 11:58:55;;;;;;;0.00;0.00;;;21.50;99.90;;;;;;4944564;28;20067;-90
2022/10/28 12:01:43;;;;;;;0.00;0.00;;;21.50;99.90;;;;;;4938809;28;20052;-89
2022/10/28 12:04:24;;;;;;;0.00;0.00;;;21.60;99.90;;;;;;4960600;28;20058;-88
2022/10/28 12:07:18;;;;;;;0.00;0.00;;;21.60;99.90;;;;;;4950882;28;20336;-87
2022/10/28 12:10:08;;;;;;;0.00;0.00;;;21.60;99.90;;;;;;4935431;28;20119;-90
2022/10/28 12:12:41;;;;;;;0.00;0.00;;;21.70;99.90;;;;;;4954814;28;20139;-89
2022/10/28 12:15:19;;;;;;;0.00;0.00;;;21.80;99.90;;;;;;4954043;28;20130;-85
2022/10/28 12:17:52;;;;;;;0.00;0.00;;;21.70;99.90;;;;;;4956224;28;20082;-86
2022/10/28 12:20:25;;;;;;;0.00;0.00;;;21.80;99.90;;;;;;4942142;28;20055;-87
2022/10/28 12:22:56;;;;;;;0.00;0.00;;;22.20;99.90;;;;;;4946140;28;20083;-87
2022/10/28 12:25:27;;;;;;;0.00;0.00;;;21.90;99.90;;;;;;4943101;28;20052;-88
2022/10/28 12:28:00;;;;;;;0.00;0.00;;;21.80;99.90;;;;;;4939468;28;20048;-89
2022/10/28 12:30:30;;;;;;;0.00;0.00;;;21.90;99.90;;;;;;4946725;28;20056;-86
2022/10/28 12:33:02;;;;;;;0.00;0.00;;;22.00;99.90;;;;;;4936245;28;20112;-88
2022/10/28 12:35:33;;;;;;;0.00;0.00;;;22.00;99.90;;;;;;4954679;28;20119;-85
2022/10/28 12:38:05;;;;;;;0.00;0.00;;;22.00;99.90;;;;;;4937729;28;20048;-88
2022/10/28 12:40:42;;;;;;;0.00;0.00;;;22.90;99.90;;;;;;4934187;28;20500;-87
2022/10/28 12:43:16;;;;;;;0.00;0.00;;;22.10;99.90;;;;;;4946946;28;20044;-91
2022/10/28 12:45:47;;;;;;;0.00;0.00;;;22.00;99.90;;;;;;4939989;28;20488;-90
2022/10/28 12:48:20;;;;;;;0.00;0.00;;;22.10;99.90;;;;;;4956966;28;20053;-90
2022/10/28 12:50:52;;;;;;;0.00;0.00;;;23.10;99.90;;;;;;4941183;28;20056;-88
2022/10/28 12:53:33;;;;;;;0.00;0.00;;;22.10;99.90;;;;;;4939884;28;20086;-88
2022/10/28 12:56:01;;;;;;;0.00;0.00;;;22.10;99.90;;;;;;4936626;28;20097;-87
2022/10/28 12:58:34;;;;;;;0.00;0.00;;;23.00;99.90;;;;;;4935976;28;20044;-86
2022/10/28 13:01:06;;;;;;;0.00;0.00;;;22.20;99.90;;;;;;4934493;28;20075;-85
2022/10/28 13:03:34;;;;;;;0.00;0.00;;;22.20;99.90;;;;;;4946570;28;20158;-88
2022/10/28 13:06:29;;;;;;;0.00;0.00;;;22.20;99.90;;;;;;4938190;28;20569;-87
2022/10/28 13:09:25;;;;;;;0.00;0.00;;;22.20;99.90;;;;;;4930432;28;20048;-88
2022/10/28 13:12:13;;;;;;;0.00;0.00;;;22.20;99.90;;;;;;4940776;28;20055;-85
2022/10/28 13:14:59;;;;;;;0.00;0.00;;;23.10;99.90;;;;;;4936330;28;20063;-84
2022/10/28 13:17:40;;;;;;;0.00;0.00;;;22.30;99.90;;;;;;4932424;28;20055;-87
2022/10/28 13:20:18;;;;;;;0.00;0.00;;;22.40;99.90;;;;;;4938140;28;20051;-86